Flight Track Log - Related Links

Times and Time Zones

All times are in EST time to prevent confusion due to time zone crossing. See the N33KC flight status page for this flight to view local times or setup timezone preferences in your user account.

Time Position Orientation Groundspeed Altitude Reporting Facility
EST Latitude Longitude Course Direction KTS MPH feet Rate Location/Type
Tue 06:35:12 PM 44.5081 -109.0519 301° West 78 90 6,100  Level Salt Lake Center
Tue 06:36:00 PM 44.6671 -109.3588 302° West  Level Estimated
Tue 06:36:13 PM 44.4914 -109.0764 226° Southwest 87 100 7,100  Level Salt Lake Center
Tue 06:37:00 PM 44.6908 -109.4155 300° West  Level FlightAware Approximate
Tue 06:37:15 PM 44.4783 -109.0225 109° East 145 167 7,900  Level Salt Lake Center
Tue 06:38:00 PM 44.7151 -109.4715 303° West  Level Estimated
Tue 06:38:16 PM 44.5114 -108.9928 33° Northeast 140 161 8,900  Level Salt Lake Center
Tue 06:39:00 PM 44.7393 -109.5277 301° West  Level FlightAware Approximate
Tue 06:39:18 PM 44.5400 -109.0128 334° Northwest 139 160 10,000  Level Salt Lake Center
Tue 06:40:00 PM 44.7634 -109.5840 301° West  Level FlightAware Approximate
Tue 06:40:19 PM 44.5536 -109.0567 294° West 127 146 10,800  Level Salt Lake Center
Tue 06:41:21 PM 44.5747 -109.0892 312° West 119 137 11,900 1,113 Climbing Salt Lake Center
Tue 06:42:23 PM 44.5911 -109.1261 302° West 116 133 13,100 976 Climbing Salt Lake Center
Tue 06:43:24 PM 44.6097 -109.1700 301° West 112 129 13,900 732 Climbing Salt Lake Center
Tue 06:44:26 PM 44.6267 -109.2061 303° West 112 129 14,600 683 Climbing Salt Lake Center
Tue 06:45:27 PM 44.6428 -109.2489 298° West 120 138 15,300 780 Climbing Salt Lake Center
Tue 06:46:29 PM 44.6608 -109.2908 301° West 125 144 16,200 927 Climbing Salt Lake Center
Tue 06:47:30 PM 44.6806 -109.3378 301° West 134 154 17,200 732 Climbing Salt Lake Center
Tue 06:48:32 PM 44.7011 -109.3831 303° West 137 158 17,700 339 Climbing Salt Lake Center
Tue 06:49:34 PM 44.7206 -109.4272 302° West 135 155 17,900 146 Climbing Salt Lake Center
Tue 06:50:35 PM 44.7450 -109.4878 300° West 145 167 18,000 49 Climbing Salt Lake Center
Tue 06:51:37 PM 44.7664 -109.5342 303° West 143 165 18,000  Level Salt Lake Center
Tue 06:52:38 PM 44.7878 -109.5872 300° West 151 174 18,000  Level Salt Lake Center
Tue 06:53:40 PM 44.8106 -109.6392 302° West 156 180 18,000 48 Level Salt Lake Center
Tue 06:54:42 PM 44.8328 -109.6900 302° West 154 177 18,100 49 Climbing Salt Lake Center
Tue 06:55:43 PM 44.8539 -109.7397 301° West 150 173 18,100 -49 Level Salt Lake Center
Tue 06:56:45 PM 44.8753 -109.7903 301° West 149 171 18,000 -48 Descending Salt Lake Center
Tue 06:57:47 PM 44.9017 -109.8536 300° West 154 177 18,000  Level Salt Lake Center
Tue 06:58:48 PM 44.9236 -109.9031 302° West 155 178 18,000 49 Level Salt Lake Center
Tue 06:59:50 PM 44.9450 -109.9531 301° West 155 178 18,100 48 Climbing Salt Lake Center
Tue 07:00:52 PM 44.9683 -110.0106 300° West 153 176 18,100  Level Salt Lake Center
Tue 07:01:53 PM 44.9894 -110.0583 302° West 151 174 18,100  Level Salt Lake Center
Tue 07:02:55 PM 45.0142 -110.1186 300° West 157 181 18,100  Level Salt Lake Center
Tue 07:03:56 PM 45.0358 -110.1692 301° West 157 181 18,100  Level Salt Lake Center
Tue 07:04:58 PM 45.0600 -110.2275 300° West 157 181 18,100  Level Salt Lake Center
Tue 07:05:59 PM 45.0814 -110.2783 301° West 157 181 18,100  Level Salt Lake Center
Tue 07:07:01 PM 45.1019 -110.3283 300° West 153 176 18,100 -48 Level Salt Lake Center
Tue 07:08:03 PM 45.1272 -110.3878 301° West 159 183 18,000 -49 Descending Salt Lake Center
Tue 07:09:04 PM 45.1492 -110.4406 301° West 159 183 18,000  Level Salt Lake Center
Tue 07:10:06 PM 45.1703 -110.4925 300° West 153 176 18,000 49 Level Salt Lake Center
Tue 07:11:07 PM 45.1928 -110.5447 301° West 156 180 18,100 49 Climbing Salt Lake Center
Tue 07:12:09 PM 45.2192 -110.6044 302° West 162 186 18,100  Level Salt Lake Center
Tue 07:13:11 PM 45.2436 -110.6653 300° West 161 185 18,100  Level Salt Lake Center
Tue 07:14:12 PM 45.2653 -110.7197 299° West 157 181 18,100 -49 Level Salt Lake Center
Tue 07:15:14 PM 45.2897 -110.7767 301° West 164 189 18,000 -48 Descending Salt Lake Center
Tue 07:16:16 PM 45.3142 -110.8353 301° West 169 194 18,000  Level Salt Lake Center
Tue 07:17:17 PM 45.3375 -110.8922 300° West 165 190 18,000  Level Salt Lake Center
Tue 07:18:19 PM 45.3592 -110.9483 299° West 160 184 18,000  Level Salt Lake Center
Tue 07:19:21 PM 45.3828 -111.0050 301° West 163 188 18,000  Level Salt Lake Center
Tue 07:20:23 PM 45.4058 -111.0614 300° West 162 186 18,000  Level Salt Lake Center
Tue 07:21:24 PM 45.4292 -111.1192 300° West 165 190 18,000 49 Level Salt Lake Center
Tue 07:22:26 PM 45.4522 -111.1758 300° West 163 188 18,100 48 Climbing Salt Lake Center
Tue 07:23:28 PM 45.4744 -111.2322 299° West 160 184 18,100  Level Salt Lake Center
Tue 07:24:29 PM 45.5000 -111.2947 300° West 166 191 18,100  Level Salt Lake Center
Tue 07:25:31 PM 45.5228 -111.3536 299° West 166 191 18,100 -49 Level Salt Lake Center
Tue 07:26:32 PM 45.5467 -111.4114 301° West 166 191 18,000 -49 Descending Salt Lake Center
Tue 07:27:34 PM 45.5694 -111.4700 299° West 166 191 18,000  Level Salt Lake Center
Tue 07:28:36 PM 45.5925 -111.5264 300° West 161 185 18,000  Level Salt Lake Center
Tue 07:29:37 PM 45.6161 -111.5842 300° West 165 190 18,000  Level Salt Lake Center
Tue 07:30:39 PM 45.6381 -111.6428 298° West 164 189 18,000  Level Salt Lake Center
Tue 07:31:41 PM 45.6611 -111.6992 300° West 162 186 18,000  Level Salt Lake Center
Tue 07:32:42 PM 45.6822 -111.7522 300° West 153 176 18,000  Level Salt Lake Center
Tue 07:33:44 PM 45.7031 -111.8056 299° West 151 174 18,000  Level Salt Lake Center
Tue 07:34:45 PM 45.7236 -111.8583 299° West 149 171 18,000  Level Salt Lake Center
Tue 07:35:47 PM 45.7453 -111.9108 301° West 151 174 18,000  Level Salt Lake Center
Tue 07:36:48 PM 45.7650 -111.9636 298° West 149 171 18,000  Level Salt Lake Center
Tue 07:37:50 PM 45.7875 -112.0189 300° West 156 180 18,000  Level Salt Lake Center
Tue 07:38:51 PM 45.8100 -112.0783 299° West 154 177 18,000  Level Salt Lake Center
Tue 07:39:53 PM 45.8306 -112.1339 298° West 157 181 18,000  Level Salt Lake Center
Tue 07:40:54 PM 45.8531 -112.1869 301° West 153 176 18,000  Level Salt Lake Center
Tue 07:41:56 PM 45.8728 -112.2394 298° West 148 170 18,000  Level Salt Lake Center
Tue 07:42:57 PM 45.8947 -112.2961 299° West 159 183 18,000  Level Salt Lake Center
Tue 07:43:59 PM 45.9167 -112.3522 299° West 159 183 18,000  Level Salt Lake Center
Tue 07:45:01 PM 45.9394 -112.4086 300° West 161 185 18,000  Level Salt Lake Center
Tue 07:46:02 PM 45.9594 -112.4611 299° West 147 169 18,000  Level Salt Lake Center
Tue 07:47:04 PM 45.9786 -112.5133 298° West 147 169 18,000  Level Salt Lake Center
Tue 07:48:05 PM 46.0000 -112.5653 301° West 148 170 18,000  Level Salt Lake Center
Tue 07:49:07 PM 46.0214 -112.6189 300° West 151 174 18,000  Level Salt Lake Center
Tue 07:50:08 PM 46.0408 -112.6739 297° West 154 177 18,000  Level Salt Lake Center
Tue 07:51:10 PM 46.0614 -112.7286 298° West 154 177 18,000  Level Salt Lake Center
Tue 07:52:11 PM 46.0828 -112.7825 300° West 152 175 18,000  Level Salt Lake Center
Tue 07:53:12 PM 46.1050 -112.8364 301° West 153 176 18,000  Level Salt Lake Center
Tue 07:54:14 PM 46.1250 -112.8947 296° West 151 174 18,000  Level Salt Lake Center
Tue 07:55:15 PM 46.1444 -112.9489 297° West 149 171 18,000  Level Salt Lake Center
Tue 07:56:17 PM 46.1669 -113.0056 300° West 160 184 18,000  Level Salt Lake Center
Tue 07:57:18 PM 46.1889 -113.0625 299° West 160 184 18,000  Level Salt Lake Center
Tue 07:58:20 PM 46.2075 -113.1169 296° West 152 175 18,000  Level Salt Lake Center
Tue 07:59:21 PM 46.2264 -113.1697 297° West 146 168 18,000  Level Salt Lake Center
Tue 08:00:23 PM 46.2467 -113.2219 299° West 146 168 18,000  Level Salt Lake Center
Tue 08:01:24 PM 46.2667 -113.2758 298° West 146 168 18,000  Level Salt Lake Center
Tue 08:02:25 PM 46.2903 -113.3228 306° West 150 173 18,000  Level Salt Lake Center
Tue 08:03:27 PM 46.3128 -113.3878 297° West 156 180 18,000  Level Salt Lake Center
Tue 08:04:28 PM 46.3339 -113.4422 299° West 157 181 18,000  Level Salt Lake Center
Tue 08:05:30 PM 46.3525 -113.4975 296° West 153 176 18,000  Level Salt Lake Center
Tue 08:06:31 PM 46.3764 -113.5558 301° West 157 181 18,000 49 Level Salt Lake Center
Tue 08:07:32 PM 46.3975 -113.6117 299° West 159 183 18,100 49 Climbing Salt Lake Center
Tue 08:08:34 PM 46.4175 -113.6681 297° West 158 182 18,100  Level Salt Lake Center
Tue 08:09:35 PM 46.4383 -113.7219 299° West 155 178 18,100 -49 Level Salt Lake Center
Tue 08:10:36 PM 46.4600 -113.7811 298° West 154 177 18,000  Descending Salt Lake Center
Tue 08:11:38 PM 46.4800 -113.8361 298° West 155 178 18,100 49 Climbing Salt Lake Center
Tue 08:12:39 PM 46.5011 -113.8914 299° West 156 180 18,100  Level Salt Lake Center
Tue 08:13:41 PM 46.5236 -113.9506 299° West 156 180 18,100  Level Salt Lake Center
Tue 08:14:42 PM 46.5431 -114.0053 297° West 154 177 18,100  Level Salt Lake Center
Tue 08:15:44 PM 46.5631 -114.0611 298° West 155 178 18,100 -49 Level Salt Lake Center
Tue 08:16:45 PM 46.5861 -114.1228 299° West 160 184 18,000  Descending Salt Lake Center
Tue 08:17:46 PM 46.6067 -114.1789 298° West 158 182 18,100 49 Climbing Salt Lake Center
Tue 08:18:48 PM 46.6261 -114.2336 297° West 153 176 18,100  Level Salt Lake Center
Tue 08:19:49 PM 46.6461 -114.2872 299° West 151 174 18,100  Level Salt Lake Center
Tue 08:20:51 PM 46.6681 -114.3461 299° West 153 176 18,100 -49 Level Salt Lake Center
Tue 08:21:52 PM 46.6869 -114.4022 296° West 155 178 18,000 -49 Descending Salt Lake Center
Tue 08:22:54 PM 46.7072 -114.4581 298° West 156 180 18,000  Level Salt Lake Center
Tue 08:23:55 PM 46.7281 -114.5167 297° West 152 175 18,000  Level Salt Lake Center
Tue 08:24:57 PM 46.7475 -114.5725 297° West 154 177 18,000  Level Salt Lake Center
Tue 08:25:58 PM 46.7686 -114.6281 299° West 156 180 18,000  Level Salt Lake Center
Tue 08:27:12 PM 46.7894 -114.6886 297° West 156 180 18,000  Level Salt Lake Center
Tue 08:28:13 PM 46.8161 -114.7606 298° West 163 188 18,000  Level Salt Lake Center
Tue 08:29:15 PM 46.8358 -114.8178 297° West 160 184 18,000  Level Salt Lake Center
Tue 08:30:16 PM 46.8553 -114.8725 297° West 164 189 18,000  Level Salt Lake Center
Tue 08:31:18 PM 46.8761 -114.9303 298° West 161 185 18,000  Level Salt Lake Center
Tue 08:32:19 PM 46.8956 -114.9872 297° West 158 182 18,000  Level Salt Lake Center
Tue 08:33:25 PM 46.9197 -115.0561 297° West 157 181 18,000  Level Seattle Center
Tue 08:34:26 PM 46.9394 -115.1133 297° West 157 181 18,000  Level Seattle Center
Tue 08:35:27 PM 46.9586 -115.1708 296° West 157 181 18,000  Level Seattle Center
Tue 08:36:28 PM 46.9792 -115.2272 298° West 157 181 18,000  Level Seattle Center
Tue 08:37:29 PM 46.9989 -115.2831 297° West 156 180 18,000  Level Seattle Center
Tue 08:38:30 PM 47.0181 -115.3383 297° West 154 177 18,000  Level Seattle Center
Tue 08:39:31 PM 47.0400 -115.4025 297° West 159 183 18,000  Level Seattle Center
Tue 08:40:32 PM 47.0608 -115.4611 298° West 162 186 18,000 -246 Level Seattle Center
Tue 08:41:33 PM 47.0869 -115.5181 304° West 168 193 17,500 -590 Descending Seattle Center
Tue 08:42:34 PM 47.1192 -115.5797 308° West 182 209 16,800 -689 Descending Seattle Center
Tue 08:43:35 PM 47.1506 -115.6431 306° West 191 220 16,100 -595 Descending Seattle Center
Tue 08:44:35 PM 47.1808 -115.7031 307° West 187 215 15,600 -595 Descending Seattle Center
Tue 08:45:36 PM 47.2128 -115.7664 307° West 191 220 14,900 -639 Descending Seattle Center
Tue 08:46:37 PM 47.2447 -115.8297 307° West 193 222 14,300 -639 Descending Seattle Center
Tue 08:47:38 PM 47.2772 -115.8931 307° West 194 223 13,600 -738 Descending Seattle Center
Tue 08:48:39 PM 47.3153 -115.9686 307° West 193 222 12,800 -738 Descending Seattle Center
Tue 08:49:40 PM 47.3461 -116.0319 306° West 191 220 12,100 -689 Descending Seattle Center
Tue 08:50:41 PM 47.3767 -116.0953 305° West 191 220 11,400 -738 Descending Seattle Center
Tue 08:51:42 PM 47.4086 -116.1589 307° West 193 222 10,600 -738 Descending Seattle Center
Tue 08:52:43 PM 47.4397 -116.2219 306° West 191 220 9,900 -639 Descending Seattle Center
Tue 08:53:44 PM 47.4694 -116.2828 306° West 188 216 9,300 -443 Descending Seattle Center
Tue 08:54:45 PM 47.4975 -116.3406 306° West 182 209 9,000 -148 Descending Seattle Center
Tue 08:55:46 PM 47.5225 -116.3925 305° West 169 194 9,000  Level Seattle Center
Tue 08:56:47 PM 47.5483 -116.4436 307° West 158 182 9,000  Level Seattle Center
Tue 08:57:48 PM 47.5731 -116.4936 306° West 152 175 9,000  Level Seattle Center
Tue 08:58:49 PM 47.5981 -116.5450 306° West 156 180 9,000  Level Seattle Center
Tue 08:59:50 PM 47.6225 -116.5956 306° West 153 176 9,000  Level Seattle Center
Tue 09:00:51 PM 47.6525 -116.6572 306° West 155 178 9,000 -148 Level Seattle Center
Tue 09:01:52 PM 47.6783 -116.7097 306° West 159 183 8,700 -295 Descending Seattle Center
Tue 09:02:53 PM 47.7036 -116.7619 306° West 158 182 8,400 -344 Descending Seattle Center
Tue 09:03:54 PM 47.7283 -116.8114 307° West 152 175 8,000 -397 Descending Seattle Center
Tue 09:04:54 PM 47.7522 -116.8603 306° West 149 171 7,600 -397 Descending Seattle Center
Tue 09:05:55 PM 47.7758 -116.9111 305° West 140 161 7,200 -295 Descending Seattle Center
Tue 09:06:56 PM 47.7983 -116.9572 306° West 131 151 7,000 -98 Descending Seattle Center
Tue 09:07:57 PM 47.8133 -116.9858 308° West 115 132 7,000 -148 Level Seattle Center
Tue 09:08:58 PM 47.8111 -117.0281 266° West 134 154 6,700 -344 Descending Seattle Center
Tue 09:09:59 PM 47.7919 -117.0725 237° Southwest 113 130 6,300 -197 Descending Seattle Center
Tue 09:11:00 PM 47.7800 -117.1058 242° Southwest 94 108 6,300 -298 Level Seattle Center
Tue 09:12:00 PM 47.7636 -117.1419 236° Southwest 108 124 5,700 -793 Descending Seattle Center
Tue 09:13:01 PM 47.7472 -117.1839 240° Southwest 111 128 4,700 -836 Descending Seattle Center
Tue 09:14:02 PM 47.7294 -117.2244 237° Southwest 115 132 4,000 -787 Descending Seattle Center
Tue 09:15:03 PM 47.7100 -117.2611 232° Southwest 113 130 3,100 -738 Descending Seattle Center
Tue 09:16:04 PM 47.6950 -117.3022 242° Southwest 122 140 2,500 -541 Descending Seattle Center
Tue 09:17:05 PM 47.6811 -117.3278 231° Southwest 96 110 2,000 -246 Descending Seattle Center
Tue 09:18:06 PM 47.6794 -117.3325 242° Southwest 51 59 2,000  Level Seattle Center

Login

Don't have an account? Register now (free) for customized features, flight alerts, and more!